Terminal Aerodrome Forecast
Issued by NWS Twin Cities, MN

Home | Current Version | Previous Version | Text Only | Print | Product List | Glossary On
Versions: 1 2 3 4 5 6 7 8 9 10 11 12 13 14 15 16 17 18 19 20
000
FTUS43 KMPX 011700
TAFSTC
TAF
KSTC 011736Z 0118/0218 14011KT P6SM OVC006
     FM012000 16009KT P6SM VCSH BKN008 OVC015
     FM012300 18006KT P6SM OVC020
     FM020400 22004KT P6SM BKN100
     FM020800 30004KT 6SM BR SCT010 BKN070
     FM021300 32005KT P6SM OVC050=

USA.gov is the U.S. government's official web portal to all federal, state and local government web resources and services.